createdAt,value
2019-02-15T00:00:58.863Z,15.75
2019-02-15T00:03:27.284Z,18.92
2019-02-15T00:05:56.047Z,18.00
2019-02-15T00:08:24.577Z,18.42
2019-02-15T00:10:53.012Z,17.50
2019-02-15T00:13:21.440Z,20.50
2019-02-15T00:15:49.949Z,16.57
2019-02-15T00:18:36.430Z,15.93
2019-02-15T00:21:06.507Z,18.13
2019-02-15T00:23:34.917Z,20.73
2019-02-15T00:26:03.352Z,20.63
2019-02-15T00:28:31.784Z,22.93
2019-02-15T00:31:00.217Z,17.07
2019-02-15T00:33:28.649Z,19.17
2019-02-15T00:35:57.080Z,16.30
2019-02-15T00:38:25.508Z,16.70
2019-02-15T00:40:53.941Z,21.07
2019-02-15T00:43:22.611Z,16.27
2019-02-15T00:46:10.773Z,18.25
2019-02-15T00:48:39.536Z,19.37
2019-02-15T00:51:18.369Z,18.55
2019-02-15T00:53:51.458Z,23.20
2019-02-15T00:56:21.536Z,14.83
2019-02-15T00:58:54.281Z,21.47
2019-02-15T01:01:40.872Z,17.87
2019-02-15T01:04:10.925Z,16.73
2019-02-15T01:06:47.001Z,18.33
2019-02-15T01:09:33.492Z,18.23
2019-02-15T01:12:06.641Z,17.67
2019-02-15T01:14:35.076Z,15.08
2019-02-15T01:17:03.998Z,16.17
2019-02-15T01:19:32.413Z,17.53
2019-02-15T01:22:00.851Z,15.60
2019-02-15T01:24:29.260Z,16.33
2019-02-15T01:26:59.341Z,17.20
2019-02-15T01:29:38.730Z,14.00
2019-02-15T01:32:11.793Z,16.43
2019-02-15T01:34:47.737Z,16.93
2019-02-15T01:37:17.806Z,16.53
2019-02-15T01:39:47.884Z,15.53
2019-02-15T01:42:34.290Z,16.47
2019-02-15T01:45:10.466Z,14.73
2019-02-15T01:47:40.185Z,16.20
2019-02-15T01:50:08.768Z,14.07
2019-02-15T01:52:37.519Z,16.30
2019-02-15T01:55:06.579Z,15.70
2019-02-15T01:57:35.326Z,14.00
2019-02-15T02:00:06.945Z,13.67
2019-02-15T02:02:35.386Z,15.47
2019-02-15T02:05:04.458Z,17.03
2019-02-15T02:07:32.885Z,16.07
2019-02-15T02:10:01.436Z,14.93
2019-02-15T02:12:29.863Z,15.23
2019-02-15T02:14:58.403Z,14.73
2019-02-15T02:17:26.853Z,15.08
2019-02-15T02:19:55.344Z,15.43
2019-02-15T02:22:23.768Z,17.70
2019-02-15T02:24:52.201Z,15.90
2019-02-15T02:27:20.633Z,16.70
2019-02-15T02:29:49.060Z,16.47
2019-02-15T02:32:17.496Z,19.63
2019-02-15T02:34:45.927Z,18.00
2019-02-15T02:37:14.369Z,15.23
2019-02-15T02:39:42.789Z,16.03
2019-02-15T02:42:11.208Z,15.73
2019-02-15T02:44:45.661Z,17.40
2019-02-15T02:47:14.073Z,15.33
2019-02-15T02:49:42.501Z,19.77
2019-02-15T02:52:10.929Z,15.23
2019-02-15T02:54:39.372Z,18.70
2019-02-15T02:57:07.798Z,20.80
2019-02-15T02:59:36.568Z,15.33
2019-02-15T03:02:05.038Z,20.27
2019-02-15T03:04:33.470Z,23.50
2019-02-15T03:07:01.904Z,20.57
2019-02-15T03:09:30.668Z,19.00
2019-02-15T03:11:59.088Z,19.87
2019-02-15T03:14:27.531Z,15.50
2019-02-15T03:16:55.945Z,17.37
2019-02-15T03:19:24.468Z,15.73
2019-02-15T03:21:52.966Z,17.93
2019-02-15T03:24:21.465Z,21.00
2019-02-15T03:26:49.890Z,18.23
2019-02-15T03:29:18.330Z,19.77
2019-02-15T03:31:46.755Z,17.73
2019-02-15T03:34:15.273Z,19.87
2019-02-15T03:36:57.352Z,15.60
2019-02-15T03:39:27.426Z,20.30
2019-02-15T03:41:55.849Z,17.47
2019-02-15T03:44:24.570Z,15.27
2019-02-15T03:46:53.004Z,19.40
2019-02-15T03:49:21.445Z,18.20
2019-02-15T03:51:49.870Z,18.37
2019-02-15T03:54:18.306Z,14.53
2019-02-15T03:56:46.727Z,20.53
2019-02-15T03:59:15.247Z,18.27
2019-02-15T04:01:43.736Z,18.27
2019-02-15T04:04:12.176Z,14.20
2019-02-15T04:06:40.599Z,14.27
2019-02-15T04:09:09.030Z,15.43
2019-02-15T04:11:37.529Z,13.48
2019-02-15T04:14:06.237Z,16.03
2019-02-15T04:16:34.666Z,14.87
2019-02-15T04:19:03.094Z,13.80
2019-02-15T04:21:31.534Z,13.00
2019-02-15T04:23:59.987Z,14.78
2019-02-15T04:26:28.414Z,16.50
2019-02-15T04:28:56.843Z,13.77
2019-02-15T04:31:25.269Z,13.73
2019-02-15T04:34:13.026Z,15.00
2019-02-15T04:36:41.773Z,15.05
2019-02-15T04:39:10.228Z,13.40
2019-02-15T04:41:38.765Z,18.53
2019-02-15T04:44:07.201Z,15.48
2019-02-15T04:46:35.625Z,17.60
2019-02-15T04:49:04.071Z,17.20
2019-02-15T04:51:32.558Z,17.70
2019-02-15T04:54:01.006Z,16.27
2019-02-15T04:56:29.436Z,17.17
2019-02-15T04:58:57.861Z,15.45
2019-02-15T05:01:26.310Z,17.70
2019-02-15T05:03:54.721Z,19.20
2019-02-15T05:06:23.161Z,18.40
2019-02-15T05:08:51.577Z,17.43
2019-02-15T05:11:20.016Z,15.58
2019-02-15T05:13:48.435Z,17.20
2019-02-15T05:16:16.882Z,16.67
2019-02-15T05:18:45.310Z,16.75
2019-02-15T05:21:13.742Z,18.40
2019-02-15T05:23:42.228Z,15.63
2019-02-15T05:26:10.665Z,16.10
2019-02-15T05:28:39.100Z,16.40
2019-02-15T05:31:07.534Z,15.90
2019-02-15T05:33:35.957Z,13.85
2019-02-15T05:36:04.398Z,17.45
2019-02-15T05:38:32.929Z,21.45
2019-02-15T05:41:01.366Z,18.55
2019-02-15T05:43:30.045Z,17.20
2019-02-15T05:45:58.510Z,20.33
2019-02-15T05:48:26.930Z,15.77
2019-02-15T05:50:55.372Z,17.30
2019-02-15T05:53:23.790Z,20.40
2019-02-15T05:55:52.215Z,16.20
2019-02-15T05:58:20.649Z,15.93
2019-02-15T06:00:49.075Z,17.47
2019-02-15T06:03:17.508Z,16.23
2019-02-15T06:05:45.928Z,19.70
2019-02-15T06:08:14.358Z,18.27
2019-02-15T06:10:42.784Z,15.95
2019-02-15T06:13:11.230Z,18.85
2019-02-15T06:15:39.657Z,20.37
2019-02-15T06:18:08.374Z,19.23
2019-02-15T06:20:36.794Z,16.87
2019-02-15T06:23:05.536Z,19.75
2019-02-15T06:25:33.955Z,23.73
2019-02-15T06:28:02.398Z,35.52
2019-02-15T06:30:30.830Z,23.20
2019-02-15T06:32:59.256Z,18.27
2019-02-15T06:35:27.684Z,14.80
2019-02-15T06:37:56.422Z,13.00
2019-02-15T06:40:24.842Z,15.68
2019-02-15T06:42:53.274Z,10.60
2019-02-15T06:45:25.066Z,12.98
2019-02-15T06:47:51.860Z,12.00
2019-02-15T06:50:20.281Z,14.83
2019-02-15T06:52:48.705Z,14.53
2019-02-15T06:55:17.128Z,12.88
2019-02-15T06:57:45.556Z,13.75
2019-02-15T07:00:24.698Z,15.80
2019-02-15T07:03:03.781Z,15.20
2019-02-15T07:05:32.205Z,12.87
2019-02-15T07:08:00.665Z,14.20
2019-02-15T07:10:29.105Z,15.23
2019-02-15T07:12:57.544Z,14.15
2019-02-15T07:15:33.401Z,13.88
2019-02-15T07:17:55.785Z,13.60
2019-02-15T07:20:24.221Z,14.63
2019-02-15T07:22:52.983Z,13.20
2019-02-15T07:25:21.149Z,14.33
2019-02-15T07:27:49.249Z,15.23
2019-02-15T07:30:17.679Z,14.35
2019-02-15T07:32:46.132Z,19.67
2019-02-15T07:35:14.554Z,15.78
2019-02-15T07:37:42.643Z,14.78
2019-02-15T07:40:11.143Z,13.53
2019-02-15T07:42:39.570Z,14.03
2019-02-15T07:45:10.138Z,13.40
2019-02-15T07:47:38.562Z,12.00
2019-02-15T07:50:12.549Z,14.05
2019-02-15T07:52:40.980Z,12.53
2019-02-15T07:55:09.242Z,11.90
2019-02-15T07:57:37.340Z,15.15
2019-02-15T08:00:13.812Z,13.30
2019-02-15T08:02:42.228Z,13.40
2019-02-15T08:05:11.295Z,13.68
2019-02-15T08:07:39.729Z,15.28
2019-02-15T08:10:10.386Z,15.33
2019-02-15T08:12:38.809Z,15.43
2019-02-15T08:15:10.126Z,11.33
2019-02-15T08:17:38.556Z,10.63
2019-02-15T08:20:11.217Z,10.97
2019-02-15T08:22:39.312Z,12.23
2019-02-15T08:25:08.064Z,10.60
2019-02-15T08:27:36.498Z,11.60
2019-02-15T08:30:07.450Z,9.13
2019-02-15T08:32:35.877Z,14.10
2019-02-15T08:35:05.594Z,10.73
2019-02-15T08:37:34.044Z,13.63
2019-02-15T08:40:02.460Z,14.00
2019-02-15T08:42:30.882Z,13.83
2019-02-15T08:44:58.974Z,17.17
2019-02-15T08:47:27.074Z,16.63
2019-02-15T08:49:55.169Z,16.80
2019-02-15T08:52:23.256Z,16.90
2019-02-15T08:54:51.416Z,22.10
2019-02-15T08:57:19.504Z,17.90
2019-02-15T08:59:48.032Z,16.00
2019-02-15T09:02:18.072Z,16.47
2019-02-15T09:04:46.508Z,18.80
2019-02-15T09:07:14.933Z,18.20
2019-02-15T09:09:43.379Z,19.80
2019-02-15T09:12:11.797Z,19.03
2019-02-15T09:14:40.220Z,19.67
2019-02-15T09:17:08.673Z,21.57
2019-02-15T09:19:37.108Z,25.77
2019-02-15T09:22:05.207Z,24.07
2019-02-15T09:24:33.297Z,22.83
2019-02-15T09:27:03.349Z,21.57
2019-02-15T09:29:31.784Z,21.23
2019-02-15T09:31:59.869Z,23.05
2019-02-15T09:34:28.301Z,21.43
2019-02-15T09:36:56.722Z,20.00
2019-02-15T09:39:25.162Z,18.03
2019-02-15T09:41:53.580Z,25.47
2019-02-15T09:44:22.049Z,20.90
2019-02-15T09:46:50.632Z,23.90
2019-02-15T09:49:20.458Z,25.73
2019-02-15T09:51:49.219Z,21.27
2019-02-15T09:54:17.640Z,20.83
2019-02-15T09:56:46.066Z,17.07
2019-02-15T09:59:14.503Z,20.67
2019-02-15T10:01:42.925Z,21.37
2019-02-15T10:04:11.349Z,19.40
2019-02-15T10:06:39.761Z,20.30
2019-02-15T10:09:08.212Z,19.10
2019-02-15T10:11:36.681Z,22.87
2019-02-15T10:14:05.425Z,15.50
2019-02-15T10:16:33.862Z,19.10
2019-02-15T10:19:02.268Z,17.43
2019-02-15T10:21:30.702Z,17.27
2019-02-15T10:23:59.117Z,14.47
2019-02-15T10:26:27.238Z,14.73
2019-02-15T10:28:55.601Z,14.40
2019-02-15T10:31:24.485Z,23.47
2019-02-15T10:33:52.897Z,14.97
2019-02-15T10:36:21.265Z,15.67
2019-02-15T10:38:49.680Z,14.07
2019-02-15T10:41:18.106Z,14.13
2019-02-15T10:43:46.789Z,18.57
2019-02-15T10:46:14.885Z,11.77
2019-02-15T10:48:42.968Z,12.13
2019-02-15T10:51:11.053Z,18.87
2019-02-15T10:53:39.141Z,16.50
2019-02-15T10:56:07.227Z,11.17
2019-02-15T10:58:35.313Z,13.63
2019-02-15T11:01:03.801Z,12.13
2019-02-15T11:03:32.213Z,13.73
2019-02-15T11:06:00.635Z,11.00
2019-02-15T11:08:29.041Z,13.43
2019-02-15T11:10:57.468Z,9.93
2019-02-15T11:13:25.868Z,9.93
2019-02-15T11:16:13.659Z,8.47
2019-02-15T11:18:42.080Z,9.07
2019-02-15T11:21:10.502Z,11.13
2019-02-15T11:23:38.913Z,9.20
2019-02-15T11:26:07.669Z,10.70
2019-02-15T11:28:36.081Z,14.50
2019-02-15T11:31:04.497Z,10.00
2019-02-15T11:33:32.902Z,9.47
2019-02-15T11:36:01.326Z,11.13
2019-02-15T11:38:30.071Z,11.70
2019-02-15T11:40:58.494Z,14.53
2019-02-15T11:43:26.906Z,9.77
2019-02-15T11:45:54.999Z,11.77
2019-02-15T11:48:23.081Z,9.30
2019-02-15T11:50:51.179Z,10.27
2019-02-15T11:53:19.589Z,13.57
2019-02-15T11:55:48.069Z,12.47
2019-02-15T11:58:16.497Z,11.07
2019-02-15T12:00:44.917Z,11.33
2019-02-15T12:03:12.987Z,6.47
2019-02-15T12:05:41.422Z,7.77
2019-02-15T12:08:09.823Z,9.87
2019-02-15T12:10:37.897Z,8.70
2019-02-15T12:13:06.308Z,9.97
2019-02-15T12:15:34.401Z,12.00
2019-02-15T12:18:02.821Z,10.30
2019-02-15T12:20:30.901Z,8.73
2019-02-15T12:22:59.335Z,11.20
2019-02-15T12:25:27.733Z,8.57
2019-02-15T12:27:56.167Z,9.60
2019-02-15T12:30:24.574Z,7.53
2019-02-15T12:32:52.988Z,10.93
2019-02-15T12:35:21.405Z,11.23
2019-02-15T12:37:49.838Z,11.83
2019-02-15T12:40:18.248Z,7.57
2019-02-15T12:42:46.685Z,11.17
2019-02-15T12:45:16.073Z,6.03
2019-02-15T12:47:44.493Z,6.57
2019-02-15T12:50:21.889Z,9.47
2019-02-15T12:52:50.646Z,10.03
2019-02-15T12:55:18.736Z,8.43
2019-02-15T12:57:47.214Z,10.70
2019-02-15T13:00:16.726Z,13.50
2019-02-15T13:02:45.145Z,7.30
2019-02-15T13:05:14.343Z,6.03
2019-02-15T13:07:42.844Z,8.00
2019-02-15T13:10:16.864Z,9.63
2019-02-15T13:12:45.578Z,6.10
2019-02-15T13:15:14.120Z,6.57
2019-02-15T13:17:42.544Z,7.90
2019-02-15T13:20:11.338Z,10.57
2019-02-15T13:22:39.508Z,5.70
2019-02-15T13:25:07.874Z,6.73
2019-02-15T13:27:36.578Z,7.97
2019-02-15T13:30:10.691Z,6.30
2019-02-15T13:32:39.185Z,4.50
2019-02-15T13:35:10.241Z,9.17
2019-02-15T13:37:38.673Z,7.07
2019-02-15T13:40:07.709Z,7.77
2019-02-15T13:42:36.133Z,5.20
2019-02-15T13:45:07.186Z,8.17
2019-02-15T13:47:35.323Z,7.37
2019-02-15T13:50:05.683Z,6.37
2019-02-15T13:52:39.837Z,7.17
2019-02-15T13:55:14.143Z,5.97
2019-02-15T13:57:42.508Z,8.00
2019-02-15T14:00:14.215Z,4.87
2019-02-15T14:02:42.697Z,13.27
2019-02-15T14:05:18.498Z,4.67
2019-02-15T14:07:46.920Z,6.47
2019-02-15T14:10:15.507Z,8.50
2019-02-15T14:12:43.968Z,7.93
2019-02-15T14:15:12.826Z,6.27
2019-02-15T14:18:00.263Z,8.63
2019-02-15T14:20:29.111Z,6.47
2019-02-15T14:22:57.535Z,6.13
2019-02-15T14:25:25.945Z,5.67
2019-02-15T14:27:54.576Z,5.03
2019-02-15T14:30:22.994Z,7.17
2019-02-15T14:32:51.769Z,8.83
2019-02-15T14:35:20.206Z,7.77
2019-02-15T14:37:48.913Z,4.60
2019-02-15T14:40:17.678Z,5.03
2019-02-15T14:42:46.368Z,5.73
2019-02-15T14:45:15.017Z,4.10
2019-02-15T14:47:43.500Z,7.03
2019-02-15T14:50:11.995Z,3.57
2019-02-15T14:52:40.837Z,4.73
2019-02-15T14:55:10.405Z,11.10
2019-02-15T14:57:38.877Z,6.43
2019-02-15T15:00:12.633Z,3.33
2019-02-15T15:02:41.499Z,3.07
2019-02-15T15:05:12.437Z,1.80
2019-02-15T15:07:41.162Z,3.00
2019-02-15T15:10:10.907Z,3.23
2019-02-15T15:12:39.331Z,1.13
2019-02-15T15:15:27.161Z,1.43
2019-02-15T15:18:05.841Z,1.10
2019-02-15T15:20:26.133Z,1.80
2019-02-15T15:22:55.112Z,1.73
2019-02-15T15:25:23.514Z,3.60
2019-02-15T15:27:52.319Z,2.47
2019-02-15T15:30:21.097Z,0.83
2019-02-15T15:32:49.899Z,2.57
2019-02-15T15:35:18.391Z,1.33
2019-02-15T15:37:47.169Z,1.63
2019-02-15T15:40:17.277Z,2.40
2019-02-15T15:42:46.114Z,2.50
2019-02-15T15:45:14.596Z,2.43
2019-02-15T15:47:42.997Z,4.10
2019-02-15T15:50:12.904Z,2.60
2019-02-15T15:52:41.317Z,1.27
2019-02-15T15:55:13.616Z,1.73
2019-02-15T15:57:42.273Z,2.57
2019-02-15T16:00:14.027Z,1.63
2019-02-15T16:02:42.546Z,4.23
2019-02-15T16:05:11.403Z,2.47
2019-02-15T16:07:39.805Z,3.97
2019-02-15T16:10:15.099Z,4.23
2019-02-15T16:12:43.502Z,1.63
2019-02-15T16:15:13.216Z,2.67
2019-02-15T16:17:41.828Z,2.13
2019-02-15T16:20:12.165Z,2.33
2019-02-15T16:23:00.197Z,3.17
2019-02-15T16:25:48.054Z,2.67
2019-02-15T16:28:16.896Z,4.17
2019-02-15T16:30:45.879Z,4.23
2019-02-15T16:33:14.648Z,4.00
2019-02-15T16:35:43.428Z,2.60
2019-02-15T16:38:12.205Z,2.90
2019-02-15T16:40:41.875Z,2.67
2019-02-15T16:43:10.775Z,3.77
2019-02-15T16:45:39.201Z,8.40
2019-02-15T16:48:07.732Z,3.20
2019-02-15T16:50:36.153Z,3.50
2019-02-15T16:53:04.693Z,3.37
2019-02-15T16:55:33.276Z,4.57
2019-02-15T16:58:01.678Z,4.00
2019-02-15T17:00:30.314Z,7.43
2019-02-15T17:02:59.103Z,5.63
2019-02-15T17:05:27.530Z,4.87
2019-02-15T17:07:56.414Z,3.30
2019-02-15T17:10:25.317Z,3.57
2019-02-15T17:12:54.165Z,7.10
2019-02-15T17:15:22.617Z,6.27
2019-02-15T17:17:51.843Z,5.87
2019-02-15T17:20:20.666Z,7.80
2019-02-15T17:22:49.077Z,10.40
2019-02-15T17:25:17.507Z,7.60
2019-02-15T17:27:47.039Z,12.97
2019-02-15T17:30:15.479Z,9.97
2019-02-15T17:33:03.518Z,8.20
2019-02-15T17:35:31.947Z,7.83
2019-02-15T17:38:00.363Z,9.73
2019-02-15T17:40:29.132Z,4.80
2019-02-15T17:42:58.516Z,4.93
2019-02-15T17:45:27.650Z,10.07
2019-02-15T17:47:56.065Z,9.23
2019-02-15T17:50:24.727Z,7.67
2019-02-15T17:52:53.144Z,14.60
2019-02-15T17:55:21.634Z,14.90
2019-02-15T17:57:50.341Z,13.93
2019-02-15T18:00:20.917Z,13.63
2019-02-15T18:02:49.907Z,14.90
2019-02-15T18:05:18.815Z,12.53
2019-02-15T18:07:50.573Z,14.63
2019-02-15T18:10:19.605Z,12.73
2019-02-15T18:12:48.025Z,10.87
2019-02-15T18:15:17.106Z,14.80
2019-02-15T18:17:45.668Z,12.27
2019-02-15T18:20:15.403Z,8.77
2019-02-15T18:22:45.243Z,8.43
2019-02-15T18:25:13.852Z,11.83
2019-02-15T18:27:42.787Z,8.73
2019-02-15T18:30:14.237Z,8.23
2019-02-15T18:32:42.694Z,12.37
2019-02-15T18:35:11.106Z,7.90
2019-02-15T18:37:39.541Z,8.13
2019-02-15T18:40:10.689Z,11.37
2019-02-15T18:42:39.778Z,9.10
2019-02-15T18:45:11.783Z,11.53
2019-02-15T18:47:40.540Z,9.47
2019-02-15T18:50:10.350Z,11.90
2019-02-15T18:52:38.798Z,12.23
2019-02-15T18:55:08.889Z,10.70
2019-02-15T18:57:37.379Z,12.33
2019-02-15T19:00:25.463Z,12.83
2019-02-15T19:02:54.153Z,12.43
2019-02-15T19:05:22.646Z,11.23
2019-02-15T19:07:51.516Z,13.97
2019-02-15T19:10:24.249Z,10.57
2019-02-15T19:12:52.852Z,10.00
2019-02-15T19:15:21.342Z,13.40
2019-02-15T19:17:50.046Z,11.17
2019-02-15T19:20:18.945Z,12.83
2019-02-15T19:22:47.605Z,8.77
2019-02-15T19:25:20.414Z,11.10
2019-02-15T19:27:48.901Z,15.93
2019-02-15T19:30:23.629Z,11.00
2019-02-15T19:32:52.665Z,11.53
2019-02-15T19:35:21.158Z,10.60
2019-02-15T19:37:49.626Z,13.10
2019-02-15T19:40:20.463Z,12.83
2019-02-15T19:42:55.021Z,12.27
2019-02-15T19:45:24.425Z,15.87
2019-02-15T19:47:52.933Z,13.73
2019-02-15T19:50:21.356Z,10.90
2019-02-15T19:52:50.371Z,12.60
2019-02-15T19:55:19.046Z,15.03
2019-02-15T19:57:47.461Z,9.83
2019-02-15T20:00:17.922Z,12.17
2019-02-15T20:02:47.117Z,13.97
2019-02-15T20:05:15.727Z,12.20
2019-02-15T20:07:45.015Z,16.63
2019-02-15T20:10:16.146Z,13.17
2019-02-15T20:12:44.588Z,12.20
2019-02-15T20:15:14.047Z,19.60
2019-02-15T20:17:43.239Z,18.13
2019-02-15T20:20:13.497Z,16.20
2019-02-15T20:22:42.140Z,23.43
2019-02-15T20:25:13.018Z,16.80
2019-02-15T20:27:41.670Z,14.30
2019-02-15T20:30:23.254Z,18.77
2019-02-15T20:32:52.517Z,16.43
2019-02-15T20:35:20.996Z,15.73
2019-02-15T20:37:49.416Z,15.60
2019-02-15T20:40:18.605Z,15.47
2019-02-15T20:42:47.439Z,14.27
2019-02-15T20:45:22.987Z,12.33
2019-02-15T20:47:52.121Z,17.40
2019-02-15T20:50:21.646Z,14.07
2019-02-15T20:52:50.107Z,14.77
2019-02-15T20:55:19.879Z,16.20
2019-02-15T20:57:48.999Z,14.03
2019-02-15T21:00:25.817Z,15.77
2019-02-15T21:02:54.907Z,12.10
2019-02-15T21:05:23.421Z,11.70
2019-02-15T21:07:52.588Z,10.87
2019-02-15T21:10:21.770Z,14.03
2019-02-15T21:12:51.594Z,14.70
2019-02-15T21:15:20.933Z,14.70
2019-02-15T21:17:50.314Z,16.60
2019-02-15T21:20:18.760Z,14.43
2019-02-15T21:22:48.300Z,15.43
2019-02-15T21:25:17.682Z,14.13
2019-02-15T21:27:46.675Z,15.63
2019-02-15T21:30:19.084Z,14.33
2019-02-15T21:32:48.025Z,14.83
2019-02-15T21:35:16.452Z,13.83
2019-02-15T21:37:44.875Z,15.23
2019-02-15T21:40:17.820Z,14.73
2019-02-15T21:42:47.960Z,16.67
2019-02-15T21:45:16.902Z,17.17
2019-02-15T21:47:45.362Z,13.67
2019-02-15T21:50:17.774Z,15.50
2019-02-15T21:52:44.798Z,14.67
2019-02-15T21:55:15.185Z,14.73
2019-02-15T21:57:43.707Z,16.20
2019-02-15T22:00:23.452Z,15.30
2019-02-15T22:02:52.769Z,17.00
2019-02-15T22:05:21.284Z,17.93
2019-02-15T22:07:50.399Z,16.67
2019-02-15T22:10:18.809Z,14.47
2019-02-15T22:12:47.902Z,14.73
2019-02-15T22:15:17.437Z,11.47
2019-02-15T22:17:45.864Z,14.20
2019-02-15T22:20:15.862Z,13.77
2019-02-15T22:22:44.696Z,17.97
2019-02-15T22:25:13.899Z,14.40
2019-02-15T22:27:42.533Z,14.10
2019-02-15T22:30:18.746Z,14.10
2019-02-15T22:32:47.672Z,14.70
2019-02-15T22:35:16.157Z,16.10
2019-02-15T22:37:44.599Z,16.53
2019-02-15T22:40:27.814Z,17.47
2019-02-15T22:42:58.445Z,16.37
2019-02-15T22:45:27.169Z,16.07
2019-02-15T22:47:55.604Z,14.97
2019-02-15T22:50:24.031Z,16.17
2019-02-15T22:52:52.462Z,14.03
2019-02-15T22:55:21.688Z,14.50
2019-02-15T22:57:50.186Z,15.60
2019-02-15T23:00:47.601Z,11.80
2019-02-15T23:03:18.105Z,12.83
2019-02-15T23:05:46.949Z,13.63
2019-02-15T23:08:27.493Z,13.20
2019-02-15T23:10:55.951Z,14.97
2019-02-15T23:13:24.042Z,12.73
2019-02-15T23:15:52.833Z,11.37
2019-02-15T23:18:20.926Z,11.27
2019-02-15T23:20:49.005Z,13.50
2019-02-15T23:23:17.105Z,13.63
2019-02-15T23:25:45.501Z,12.33
2019-02-15T23:28:13.605Z,11.60
2019-02-15T23:30:42.024Z,11.37
2019-02-15T23:33:10.728Z,13.27
2019-02-15T23:35:39.139Z,12.50
2019-02-15T23:38:07.933Z,10.83
2019-02-15T23:40:36.350Z,13.03
2019-02-15T23:43:04.828Z,15.70
2019-02-15T23:45:32.968Z,13.07
2019-02-15T23:48:01.064Z,12.47
2019-02-15T23:50:29.160Z,15.60
2019-02-15T23:52:57.255Z,13.33
2019-02-15T23:55:25.668Z,16.37
2019-02-15T23:57:53.763Z,14.27
